sensor_id;sensor_type;location;lat;lon;timestamp;P1;durP1;ratioP1;P2;durP2;ratioP2
56427;SDS011;42331;53.578;9.760;2023-05-17T00:00:34;23.58;;;3.78;;
56427;SDS011;42331;53.578;9.760;2023-05-17T00:03:05;18.83;;;3.33;;
56427;SDS011;42331;53.578;9.760;2023-05-17T00:05:41;18.58;;;5.57;;
56427;SDS011;42331;53.578;9.760;2023-05-17T00:08:12;17.67;;;4.15;;
56427;SDS011;42331;53.578;9.760;2023-05-17T00:10:46;15.55;;;3.55;;
56427;SDS011;42331;53.578;9.760;2023-05-17T00:13:16;17.60;;;3.40;;
56427;SDS011;42331;53.578;9.760;2023-05-17T00:15:47;18.52;;;3.92;;
56427;SDS011;42331;53.578;9.760;2023-05-17T00:18:21;14.18;;;2.97;;
56427;SDS011;42331;53.578;9.760;2023-05-17T00:20:52;23.63;;;3.35;;
56427;SDS011;42331;53.578;9.760;2023-05-17T00:23:22;18.90;;;3.38;;
56427;SDS011;42331;53.578;9.760;2023-05-17T00:25:53;12.38;;;2.80;;
56427;SDS011;42331;53.578;9.760;2023-05-17T00:28:24;19.13;;;3.70;;
56427;SDS011;42331;53.578;9.760;2023-05-17T00:30:56;15.60;;;3.28;;
56427;SDS011;42331;53.578;9.760;2023-05-17T00:33:26;19.65;;;3.15;;
56427;SDS011;42331;53.578;9.760;2023-05-17T00:35:57;12.70;;;2.40;;
56427;SDS011;42331;53.578;9.760;2023-05-17T00:38:28;15.98;;;3.80;;
56427;SDS011;42331;53.578;9.760;2023-05-17T00:40:59;18.13;;;3.22;;
56427;SDS011;42331;53.578;9.760;2023-05-17T00:43:37;18.23;;;2.60;;
56427;SDS011;42331;53.578;9.760;2023-05-17T00:46:11;20.40;;;2.88;;
56427;SDS011;42331;53.578;9.760;2023-05-17T00:48:45;16.75;;;3.85;;
56427;SDS011;42331;53.578;9.760;2023-05-17T00:51:16;20.20;;;2.83;;
56427;SDS011;42331;53.578;9.760;2023-05-17T00:53:48;17.65;;;3.20;;
56427;SDS011;42331;53.578;9.760;2023-05-17T00:56:19;13.32;;;2.60;;
56427;SDS011;42331;53.578;9.760;2023-05-17T00:58:50;33.72;;;3.65;;
56427;SDS011;42331;53.578;9.760;2023-05-17T01:01:22;23.38;;;3.60;;
56427;SDS011;42331;53.578;9.760;2023-05-17T01:03:55;22.05;;;2.85;;
56427;SDS011;42331;53.578;9.760;2023-05-17T01:06:31;24.67;;;3.72;;
56427;SDS011;42331;53.578;9.760;2023-05-17T01:09:10;24.20;;;3.85;;
56427;SDS011;42331;53.578;9.760;2023-05-17T01:17:51;22.27;;;3.60;;
56427;SDS011;42331;53.578;9.760;2023-05-17T01:20:36;16.85;;;2.53;;
56427;SDS011;42331;53.578;9.760;2023-05-17T01:31:22;20.30;;;3.78;;
56427;SDS011;42331;53.578;9.760;2023-05-17T01:33:55;17.20;;;4.28;;
56427;SDS011;42331;53.578;9.760;2023-05-17T01:36:30;16.70;;;3.67;;
56427;SDS011;42331;53.578;9.760;2023-05-17T01:39:04;13.70;;;2.70;;
56427;SDS011;42331;53.578;9.760;2023-05-17T01:41:40;17.55;;;3.10;;
56427;SDS011;42331;53.578;9.760;2023-05-17T01:44:25;20.33;;;2.85;;
56427;SDS011;42331;53.578;9.760;2023-05-17T01:47:08;15.50;;;2.50;;
56427;SDS011;42331;53.578;9.760;2023-05-17T01:49:45;16.83;;;2.97;;
56427;SDS011;42331;53.578;9.760;2023-05-17T01:52:27;13.95;;;2.38;;
56427;SDS011;42331;53.578;9.760;2023-05-17T01:55:07;23.15;;;2.95;;
56427;SDS011;42331;53.578;9.760;2023-05-17T01:57:49;15.82;;;2.17;;
56427;SDS011;42331;53.578;9.760;2023-05-17T02:00:24;11.60;;;1.95;;
56427;SDS011;42331;53.578;9.760;2023-05-17T02:03:06;18.17;;;2.50;;
56427;SDS011;42331;53.578;9.760;2023-05-17T02:05:44;19.70;;;3.03;;
56427;SDS011;42331;53.578;9.760;2023-05-17T02:08:19;16.15;;;2.47;;
56427;SDS011;42331;53.578;9.760;2023-05-17T02:10:50;12.65;;;2.05;;
56427;SDS011;42331;53.578;9.760;2023-05-17T02:13:24;12.35;;;1.90;;
56427;SDS011;42331;53.578;9.760;2023-05-17T02:15:58;11.32;;;1.90;;
56427;SDS011;42331;53.578;9.760;2023-05-17T02:18:32;13.30;;;2.17;;
56427;SDS011;42331;53.578;9.760;2023-05-17T02:21:04;12.82;;;1.83;;
56427;SDS011;42331;53.578;9.760;2023-05-17T02:23:35;14.80;;;1.73;;
56427;SDS011;42331;53.578;9.760;2023-05-17T02:26:07;17.73;;;2.20;;
56427;SDS011;42331;53.578;9.760;2023-05-17T02:28:37;16.25;;;2.20;;
56427;SDS011;42331;53.578;9.760;2023-05-17T02:31:08;19.83;;;2.42;;
56427;SDS011;42331;53.578;9.760;2023-05-17T02:33:39;7.85;;;1.23;;
56427;SDS011;42331;53.578;9.760;2023-05-17T02:36:10;13.52;;;2.25;;
56427;SDS011;42331;53.578;9.760;2023-05-17T02:38:40;13.63;;;1.80;;
56427;SDS011;42331;53.578;9.760;2023-05-17T02:41:14;17.17;;;2.15;;
56427;SDS011;42331;53.578;9.760;2023-05-17T02:43:45;11.48;;;1.80;;
56427;SDS011;42331;53.578;9.760;2023-05-17T02:46:16;19.13;;;2.30;;
56427;SDS011;42331;53.578;9.760;2023-05-17T02:48:50;12.95;;;1.60;;
56427;SDS011;42331;53.578;9.760;2023-05-17T02:51:21;10.45;;;1.60;;
56427;SDS011;42331;53.578;9.760;2023-05-17T02:53:52;11.32;;;1.48;;
56427;SDS011;42331;53.578;9.760;2023-05-17T02:56:29;13.93;;;1.88;;
56427;SDS011;42331;53.578;9.760;2023-05-17T02:59:00;10.75;;;1.70;;
56427;SDS011;42331;53.578;9.760;2023-05-17T03:01:39;12.80;;;1.63;;
56427;SDS011;42331;53.578;9.760;2023-05-17T03:04:11;15.60;;;2.00;;
56427;SDS011;42331;53.578;9.760;2023-05-17T03:07:05;9.50;;;1.55;;
56427;SDS011;42331;53.578;9.760;2023-05-17T03:09:36;13.97;;;1.50;;
56427;SDS011;42331;53.578;9.760;2023-05-17T03:12:07;11.65;;;1.75;;
56427;SDS011;42331;53.578;9.760;2023-05-17T03:14:38;10.73;;;2.03;;
56427;SDS011;42331;53.578;9.760;2023-05-17T03:17:08;11.88;;;1.70;;
56427;SDS011;42331;53.578;9.760;2023-05-17T03:19:42;8.88;;;1.35;;
56427;SDS011;42331;53.578;9.760;2023-05-17T03:22:19;9.48;;;1.40;;
56427;SDS011;42331;53.578;9.760;2023-05-17T03:24:58;11.00;;;1.27;;
56427;SDS011;42331;53.578;9.760;2023-05-17T03:27:29;11.63;;;1.40;;
56427;SDS011;42331;53.578;9.760;2023-05-17T03:30:03;7.35;;;1.42;;
56427;SDS011;42331;53.578;9.760;2023-05-17T03:32:44;12.45;;;1.35;;
56427;SDS011;42331;53.578;9.760;2023-05-17T03:35:38;8.45;;;1.45;;
56427;SDS011;42331;53.578;9.760;2023-05-17T03:38:29;17.80;;;2.35;;
56427;SDS011;42331;53.578;9.760;2023-05-17T03:41:00;11.70;;;1.75;;
56427;SDS011;42331;53.578;9.760;2023-05-17T03:43:31;14.85;;;1.92;;
56427;SDS011;42331;53.578;9.760;2023-05-17T03:46:01;14.70;;;2.30;;
56427;SDS011;42331;53.578;9.760;2023-05-17T03:48:32;13.85;;;2.22;;
56427;SDS011;42331;53.578;9.760;2023-05-17T03:51:03;24.58;;;2.10;;
56427;SDS011;42331;53.578;9.760;2023-05-17T03:53:35;13.65;;;1.98;;
56427;SDS011;42331;53.578;9.760;2023-05-17T03:56:10;14.32;;;2.13;;
56427;SDS011;42331;53.578;9.760;2023-05-17T03:58:40;23.92;;;2.90;;
56427;SDS011;42331;53.578;9.760;2023-05-17T04:01:11;14.55;;;2.75;;
56427;SDS011;42331;53.578;9.760;2023-05-17T04:03:42;14.80;;;2.03;;
56427;SDS011;42331;53.578;9.760;2023-05-17T04:06:13;13.32;;;2.22;;
56427;SDS011;42331;53.578;9.760;2023-05-17T04:08:44;13.80;;;1.87;;
56427;SDS011;42331;53.578;9.760;2023-05-17T04:11:14;11.93;;;1.80;;
56427;SDS011;42331;53.578;9.760;2023-05-17T04:13:46;16.48;;;2.72;;
56427;SDS011;42331;53.578;9.760;2023-05-17T04:16:17;15.13;;;2.15;;
56427;SDS011;42331;53.578;9.760;2023-05-17T04:18:48;10.07;;;1.60;;
56427;SDS011;42331;53.578;9.760;2023-05-17T04:21:21;18.27;;;1.92;;
56427;SDS011;42331;53.578;9.760;2023-05-17T04:23:52;19.83;;;2.50;;
56427;SDS011;42331;53.578;9.760;2023-05-17T04:26:25;16.23;;;2.10;;
56427;SDS011;42331;53.578;9.760;2023-05-17T04:28:56;15.55;;;2.63;;
56427;SDS011;42331;53.578;9.760;2023-05-17T04:31:27;12.02;;;1.70;;
56427;SDS011;42331;53.578;9.760;2023-05-17T04:33:57;11.73;;;2.33;;
56427;SDS011;42331;53.578;9.760;2023-05-17T04:36:28;16.23;;;2.13;;
56427;SDS011;42331;53.578;9.760;2023-05-17T04:38:59;17.80;;;2.47;;
56427;SDS011;42331;53.578;9.760;2023-05-17T04:41:30;17.58;;;2.30;;
56427;SDS011;42331;53.578;9.760;2023-05-17T04:44:02;19.52;;;2.10;;
56427;SDS011;42331;53.578;9.760;2023-05-17T04:46:33;17.23;;;2.10;;
56427;SDS011;42331;53.578;9.760;2023-05-17T04:49:04;16.23;;;2.42;;
56427;SDS011;42331;53.578;9.760;2023-05-17T04:51:35;15.35;;;2.08;;
56427;SDS011;42331;53.578;9.760;2023-05-17T04:54:05;14.50;;;2.40;;
56427;SDS011;42331;53.578;9.760;2023-05-17T04:56:37;11.90;;;1.92;;
56427;SDS011;42331;53.578;9.760;2023-05-17T04:59:08;16.30;;;2.85;;
56427;SDS011;42331;53.578;9.760;2023-05-17T05:01:38;18.92;;;2.78;;
56427;SDS011;42331;53.578;9.760;2023-05-17T05:04:09;15.10;;;1.77;;
56427;SDS011;42331;53.578;9.760;2023-05-17T05:06:40;18.20;;;2.45;;
56427;SDS011;42331;53.578;9.760;2023-05-17T05:09:11;12.50;;;2.15;;
56427;SDS011;42331;53.578;9.760;2023-05-17T05:11:41;15.93;;;2.75;;
56427;SDS011;42331;53.578;9.760;2023-05-17T05:14:12;16.88;;;2.00;;
56427;SDS011;42331;53.578;9.760;2023-05-17T05:16:43;17.38;;;2.33;;
56427;SDS011;42331;53.578;9.760;2023-05-17T05:19:13;15.70;;;2.53;;
56427;SDS011;42331;53.578;9.760;2023-05-17T05:21:44;18.98;;;2.42;;
56427;SDS011;42331;53.578;9.760;2023-05-17T05:24:15;12.88;;;1.83;;
56427;SDS011;42331;53.578;9.760;2023-05-17T05:26:46;11.70;;;1.95;;
56427;SDS011;42331;53.578;9.760;2023-05-17T05:29:17;14.52;;;2.58;;
56427;SDS011;42331;53.578;9.760;2023-05-17T05:31:48;9.07;;;1.60;;
56427;SDS011;42331;53.578;9.760;2023-05-17T05:34:18;12.15;;;1.92;;
56427;SDS011;42331;53.578;9.760;2023-05-17T05:36:49;8.88;;;1.58;;
56427;SDS011;42331;53.578;9.760;2023-05-17T05:39:20;18.47;;;1.87;;
56427;SDS011;42331;53.578;9.760;2023-05-17T05:41:51;17.20;;;1.73;;
56427;SDS011;42331;53.578;9.760;2023-05-17T05:44:22;13.32;;;2.33;;
56427;SDS011;42331;53.578;9.760;2023-05-17T05:46:53;7.57;;;1.52;;
56427;SDS011;42331;53.578;9.760;2023-05-17T05:49:24;12.80;;;1.73;;
56427;SDS011;42331;53.578;9.760;2023-05-17T05:51:55;13.13;;;1.58;;
56427;SDS011;42331;53.578;9.760;2023-05-17T05:54:25;5.93;;;0.77;;
56427;SDS011;42331;53.578;9.760;2023-05-17T05:56:56;12.55;;;2.47;;
56427;SDS011;42331;53.578;9.760;2023-05-17T05:59:27;14.20;;;1.83;;
56427;SDS011;42331;53.578;9.760;2023-05-17T06:01:58;12.13;;;1.83;;
56427;SDS011;42331;53.578;9.760;2023-05-17T06:04:28;13.68;;;1.67;;
56427;SDS011;42331;53.578;9.760;2023-05-17T06:06:59;14.65;;;1.63;;
56427;SDS011;42331;53.578;9.760;2023-05-17T06:09:30;14.98;;;2.08;;
56427;SDS011;42331;53.578;9.760;2023-05-17T06:12:01;12.80;;;2.38;;
56427;SDS011;42331;53.578;9.760;2023-05-17T06:14:32;10.18;;;1.75;;
56427;SDS011;42331;53.578;9.760;2023-05-17T06:17:03;13.23;;;1.80;;
56427;SDS011;42331;53.578;9.760;2023-05-17T06:19:34;13.03;;;1.90;;
56427;SDS011;42331;53.578;9.760;2023-05-17T06:22:04;14.05;;;1.88;;
56427;SDS011;42331;53.578;9.760;2023-05-17T06:24:35;14.40;;;1.98;;
56427;SDS011;42331;53.578;9.760;2023-05-17T06:27:06;11.10;;;1.90;;
56427;SDS011;42331;53.578;9.760;2023-05-17T06:29:36;15.80;;;1.88;;
56427;SDS011;42331;53.578;9.760;2023-05-17T06:32:07;14.32;;;1.92;;
56427;SDS011;42331;53.578;9.760;2023-05-17T06:34:41;11.15;;;1.42;;
56427;SDS011;42331;53.578;9.760;2023-05-17T06:37:12;11.60;;;1.75;;
56427;SDS011;42331;53.578;9.760;2023-05-17T06:39:42;11.77;;;1.45;;
56427;SDS011;42331;53.578;9.760;2023-05-17T06:42:13;10.93;;;1.60;;
56427;SDS011;42331;53.578;9.760;2023-05-17T06:44:44;19.42;;;2.13;;
56427;SDS011;42331;53.578;9.760;2023-05-17T06:47:15;19.13;;;3.10;;
56427;SDS011;42331;53.578;9.760;2023-05-17T06:49:47;11.82;;;1.77;;
56427;SDS011;42331;53.578;9.760;2023-05-17T06:52:18;12.68;;;1.80;;
56427;SDS011;42331;53.578;9.760;2023-05-17T06:54:48;16.20;;;1.70;;
56427;SDS011;42331;53.578;9.760;2023-05-17T06:57:19;20.10;;;1.85;;
56427;SDS011;42331;53.578;9.760;2023-05-17T06:59:50;11.88;;;1.85;;
56427;SDS011;42331;53.578;9.760;2023-05-17T07:02:21;13.82;;;1.80;;
56427;SDS011;42331;53.578;9.760;2023-05-17T07:04:52;13.73;;;1.83;;
56427;SDS011;42331;53.578;9.760;2023-05-17T07:07:23;12.10;;;2.72;;
56427;SDS011;42331;53.578;9.760;2023-05-17T07:09:53;8.77;;;1.25;;
56427;SDS011;42331;53.578;9.760;2023-05-17T07:12:24;9.48;;;1.60;;
56427;SDS011;42331;53.578;9.760;2023-05-17T07:14:55;10.80;;;1.92;;
56427;SDS011;42331;53.578;9.760;2023-05-17T07:17:25;10.02;;;1.20;;
56427;SDS011;42331;53.578;9.760;2023-05-17T07:19:56;7.90;;;1.50;;
56427;SDS011;42331;53.578;9.760;2023-05-17T07:22:27;14.93;;;1.90;;
56427;SDS011;42331;53.578;9.760;2023-05-17T07:24:58;13.73;;;1.92;;
56427;SDS011;42331;53.578;9.760;2023-05-17T07:27:29;10.00;;;1.52;;
56427;SDS011;42331;53.578;9.760;2023-05-17T07:30:00;13.27;;;2.45;;
56427;SDS011;42331;53.578;9.760;2023-05-17T07:32:30;12.05;;;1.88;;
56427;SDS011;42331;53.578;9.760;2023-05-17T07:35:01;11.43;;;1.55;;
56427;SDS011;42331;53.578;9.760;2023-05-17T07:37:32;11.55;;;1.83;;
56427;SDS011;42331;53.578;9.760;2023-05-17T07:40:03;9.63;;;1.60;;
56427;SDS011;42331;53.578;9.760;2023-05-17T07:42:34;11.55;;;1.70;;
56427;SDS011;42331;53.578;9.760;2023-05-17T07:45:05;12.88;;;4.32;;
56427;SDS011;42331;53.578;9.760;2023-05-17T07:47:36;17.50;;;2.75;;
56427;SDS011;42331;53.578;9.760;2023-05-17T07:50:07;10.93;;;1.73;;
56427;SDS011;42331;53.578;9.760;2023-05-17T07:52:38;14.20;;;1.83;;
56427;SDS011;42331;53.578;9.760;2023-05-17T07:55:09;10.40;;;1.90;;
56427;SDS011;42331;53.578;9.760;2023-05-17T07:57:40;7.25;;;1.63;;
56427;SDS011;42331;53.578;9.760;2023-05-17T08:00:11;14.05;;;2.08;;
56427;SDS011;42331;53.578;9.760;2023-05-17T08:02:42;13.25;;;1.80;;
56427;SDS011;42331;53.578;9.760;2023-05-17T08:05:13;10.27;;;1.48;;
56427;SDS011;42331;53.578;9.760;2023-05-17T08:07:44;9.32;;;2.75;;
56427;SDS011;42331;53.578;9.760;2023-05-17T08:10:15;11.75;;;2.00;;
56427;SDS011;42331;53.578;9.760;2023-05-17T08:12:46;13.10;;;2.40;;
56427;SDS011;42331;53.578;9.760;2023-05-17T08:15:17;8.95;;;1.38;;
56427;SDS011;42331;53.578;9.760;2023-05-17T08:17:47;12.57;;;1.75;;
56427;SDS011;42331;53.578;9.760;2023-05-17T08:20:18;14.88;;;2.22;;
56427;SDS011;42331;53.578;9.760;2023-05-17T08:22:49;9.82;;;1.85;;
56427;SDS011;42331;53.578;9.760;2023-05-17T08:25:19;13.95;;;2.45;;
56427;SDS011;42331;53.578;9.760;2023-05-17T08:27:50;10.25;;;1.77;;
56427;SDS011;42331;53.578;9.760;2023-05-17T08:30:21;9.13;;;1.65;;
56427;SDS011;42331;53.578;9.760;2023-05-17T08:32:52;14.50;;;2.53;;
56427;SDS011;42331;53.578;9.760;2023-05-17T08:35:22;11.50;;;2.33;;
56427;SDS011;42331;53.578;9.760;2023-05-17T08:40:26;10.38;;;1.75;;
56427;SDS011;42331;53.578;9.760;2023-05-17T08:42:57;9.77;;;2.35;;
56427;SDS011;42331;53.578;9.760;2023-05-17T08:45:28;11.47;;;2.30;;
56427;SDS011;42331;53.578;9.760;2023-05-17T08:48:00;10.05;;;1.70;;
56427;SDS011;42331;53.578;9.760;2023-05-17T08:50:32;8.10;;;1.60;;
56427;SDS011;42331;53.578;9.760;2023-05-17T08:53:04;15.07;;;2.17;;
56427;SDS011;42331;53.578;9.760;2023-05-17T08:55:35;13.98;;;2.38;;
56427;SDS011;42331;53.578;9.760;2023-05-17T08:58:06;15.90;;;2.05;;
56427;SDS011;42331;53.578;9.760;2023-05-17T09:00:38;14.77;;;2.05;;
56427;SDS011;42331;53.578;9.760;2023-05-17T09:03:09;6.97;;;1.67;;
56427;SDS011;42331;53.578;9.760;2023-05-17T09:05:44;11.15;;;1.63;;
56427;SDS011;42331;53.578;9.760;2023-05-17T09:08:15;10.27;;;1.98;;
56427;SDS011;42331;53.578;9.760;2023-05-17T09:10:46;11.50;;;1.80;;
56427;SDS011;42331;53.578;9.760;2023-05-17T09:13:17;12.60;;;1.50;;
56427;SDS011;42331;53.578;9.760;2023-05-17T09:15:48;11.32;;;1.67;;
56427;SDS011;42331;53.578;9.760;2023-05-17T09:18:27;11.10;;;1.60;;
56427;SDS011;42331;53.578;9.760;2023-05-17T09:21:06;9.40;;;1.50;;
56427;SDS011;42331;53.578;9.760;2023-05-17T09:23:38;8.57;;;2.00;;
56427;SDS011;42331;53.578;9.760;2023-05-17T09:26:09;11.07;;;2.03;;
56427;SDS011;42331;53.578;9.760;2023-05-17T09:28:42;11.30;;;1.92;;
56427;SDS011;42331;53.578;9.760;2023-05-17T09:31:15;7.45;;;1.23;;
56427;SDS011;42331;53.578;9.760;2023-05-17T09:33:46;9.32;;;2.28;;
56427;SDS011;42331;53.578;9.760;2023-05-17T09:36:19;11.23;;;2.05;;
56427;SDS011;42331;53.578;9.760;2023-05-17T09:38:55;13.85;;;2.30;;
56427;SDS011;42331;53.578;9.760;2023-05-17T09:41:42;17.63;;;2.50;;
56427;SDS011;42331;53.578;9.760;2023-05-17T09:44:15;14.57;;;1.90;;
56427;SDS011;42331;53.578;9.760;2023-05-17T09:46:46;10.35;;;2.13;;
56427;SDS011;42331;53.578;9.760;2023-05-17T09:49:17;11.10;;;2.08;;
56427;SDS011;42331;53.578;9.760;2023-05-17T09:51:48;14.85;;;2.28;;
56427;SDS011;42331;53.578;9.760;2023-05-17T09:54:19;11.02;;;1.67;;
56427;SDS011;42331;53.578;9.760;2023-05-17T09:56:53;9.90;;;1.75;;
56427;SDS011;42331;53.578;9.760;2023-05-17T09:59:24;11.65;;;1.63;;
56427;SDS011;42331;53.578;9.760;2023-05-17T10:01:57;13.77;;;2.00;;
56427;SDS011;42331;53.578;9.760;2023-05-17T10:04:29;9.40;;;1.98;;
56427;SDS011;42331;53.578;9.760;2023-05-17T10:09:33;12.37;;;2.07;;
56427;SDS011;42331;53.578;9.760;2023-05-17T10:12:06;12.23;;;1.80;;
56427;SDS011;42331;53.578;9.760;2023-05-17T10:14:40;14.15;;;2.35;;
56427;SDS011;42331;53.578;9.760;2023-05-17T10:17:13;9.40;;;2.00;;
56427;SDS011;42331;53.578;9.760;2023-05-17T10:19:44;12.98;;;2.00;;
56427;SDS011;42331;53.578;9.760;2023-05-17T10:22:15;11.77;;;1.77;;
56427;SDS011;42331;53.578;9.760;2023-05-17T10:24:48;10.80;;;2.10;;
56427;SDS011;42331;53.578;9.760;2023-05-17T10:27:20;10.65;;;2.05;;
56427;SDS011;42331;53.578;9.760;2023-05-17T10:29:51;9.07;;;1.80;;
56427;SDS011;42331;53.578;9.760;2023-05-17T10:32:23;8.02;;;1.70;;
56427;SDS011;42331;53.578;9.760;2023-05-17T10:34:57;10.48;;;1.95;;
56427;SDS011;42331;53.578;9.760;2023-05-17T10:37:30;8.98;;;1.52;;
56427;SDS011;42331;53.578;9.760;2023-05-17T10:40:02;10.15;;;1.63;;
56427;SDS011;42331;53.578;9.760;2023-05-17T10:42:33;5.28;;;1.30;;
56427;SDS011;42331;53.578;9.760;2023-05-17T10:45:04;8.43;;;1.30;;
56427;SDS011;42331;53.578;9.760;2023-05-17T10:47:38;7.95;;;1.38;;
56427;SDS011;42331;53.578;9.760;2023-05-17T10:50:12;10.38;;;1.60;;
56427;SDS011;42331;53.578;9.760;2023-05-17T10:52:44;7.50;;;1.13;;
56427;SDS011;42331;53.578;9.760;2023-05-17T10:55:33;5.10;;;1.00;;
56427;SDS011;42331;53.578;9.760;2023-05-17T11:00:40;3.63;;;0.80;;
56427;SDS011;42331;53.578;9.760;2023-05-17T11:03:14;6.15;;;1.15;;
56427;SDS011;42331;53.578;9.760;2023-05-17T11:08:43;6.70;;;1.10;;
56427;SDS011;42331;53.578;9.760;2023-05-17T11:11:18;5.53;;;0.93;;
56427;SDS011;42331;53.578;9.760;2023-05-17T11:13:50;3.27;;;0.80;;
56427;SDS011;42331;53.578;9.760;2023-05-17T11:16:33;4.25;;;0.75;;
56427;SDS011;42331;53.578;9.760;2023-05-17T11:19:09;3.72;;;1.02;;
56427;SDS011;42331;53.578;9.760;2023-05-17T11:21:46;6.70;;;1.08;;
56427;SDS011;42331;53.578;9.760;2023-05-17T11:24:23;8.75;;;0.90;;
56427;SDS011;42331;53.578;9.760;2023-05-17T11:26:58;6.07;;;1.00;;
56427;SDS011;42331;53.578;9.760;2023-05-17T11:29:30;9.10;;;1.55;;
56427;SDS011;42331;53.578;9.760;2023-05-17T11:32:04;10.02;;;1.48;;
56427;SDS011;42331;53.578;9.760;2023-05-17T11:34:38;8.40;;;1.75;;
56427;SDS011;42331;53.578;9.760;2023-05-17T11:37:09;11.02;;;1.88;;
56427;SDS011;42331;53.578;9.760;2023-05-17T11:39:59;8.50;;;1.67;;
56427;SDS011;42331;53.578;9.760;2023-05-17T11:42:37;10.23;;;1.38;;
56427;SDS011;42331;53.578;9.760;2023-05-17T11:45:09;9.43;;;1.60;;
56427;SDS011;42331;53.578;9.760;2023-05-17T11:47:39;10.18;;;1.60;;
56427;SDS011;42331;53.578;9.760;2023-05-17T11:50:11;10.00;;;1.55;;
56427;SDS011;42331;53.578;9.760;2023-05-17T11:55:14;8.35;;;1.60;;
56427;SDS011;42331;53.578;9.760;2023-05-17T11:57:45;7.43;;;1.45;;
56427;SDS011;42331;53.578;9.760;2023-05-17T12:00:17;5.78;;;1.20;;
56427;SDS011;42331;53.578;9.760;2023-05-17T12:02:57;11.43;;;1.67;;
56427;SDS011;42331;53.578;9.760;2023-05-17T12:05:28;9.18;;;1.30;;
56427;SDS011;42331;53.578;9.760;2023-05-17T12:07:59;8.00;;;1.45;;
56427;SDS011;42331;53.578;9.760;2023-05-17T12:10:30;9.20;;;1.30;;
56427;SDS011;42331;53.578;9.760;2023-05-17T12:13:02;6.65;;;1.48;;
56427;SDS011;42331;53.578;9.760;2023-05-17T12:15:33;7.88;;;1.45;;
56427;SDS011;42331;53.578;9.760;2023-05-17T12:18:04;7.53;;;1.17;;
56427;SDS011;42331;53.578;9.760;2023-05-17T12:20:35;9.32;;;1.67;;
56427;SDS011;42331;53.578;9.760;2023-05-17T12:23:07;7.53;;;1.63;;
56427;SDS011;42331;53.578;9.760;2023-05-17T12:25:38;11.70;;;1.48;;
56427;SDS011;42331;53.578;9.760;2023-05-17T12:28:16;7.25;;;1.75;;
56427;SDS011;42331;53.578;9.760;2023-05-17T12:30:54;10.18;;;1.70;;
56427;SDS011;42331;53.578;9.760;2023-05-17T12:33:35;7.38;;;1.40;;
56427;SDS011;42331;53.578;9.760;2023-05-17T12:36:09;8.68;;;1.77;;
56427;SDS011;42331;53.578;9.760;2023-05-17T12:38:41;8.18;;;1.33;;
56427;SDS011;42331;53.578;9.760;2023-05-17T12:41:14;8.35;;;1.60;;
56427;SDS011;42331;53.578;9.760;2023-05-17T12:46:17;7.82;;;1.70;;
56427;SDS011;42331;53.578;9.760;2023-05-17T12:48:51;7.05;;;1.02;;
56427;SDS011;42331;53.578;9.760;2023-05-17T12:51:22;7.57;;;1.08;;
56427;SDS011;42331;53.578;9.760;2023-05-17T12:53:53;4.70;;;1.13;;
56427;SDS011;42331;53.578;9.760;2023-05-17T12:56:26;6.60;;;1.23;;
56427;SDS011;42331;53.578;9.760;2023-05-17T12:59:06;10.20;;;1.75;;
56427;SDS011;42331;53.578;9.760;2023-05-17T13:04:27;6.55;;;1.10;;
56427;SDS011;42331;53.578;9.760;2023-05-17T13:07:01;7.93;;;1.50;;
56427;SDS011;42331;53.578;9.760;2023-05-17T13:09:33;9.07;;;1.88;;
56427;SDS011;42331;53.578;9.760;2023-05-17T13:12:21;9.63;;;1.05;;
56427;SDS011;42331;53.578;9.760;2023-05-17T13:14:53;9.40;;;1.00;;
56427;SDS011;42331;53.578;9.760;2023-05-17T13:17:25;10.45;;;1.60;;
56427;SDS011;42331;53.578;9.760;2023-05-17T13:22:27;8.55;;;1.48;;
56427;SDS011;42331;53.578;9.760;2023-05-17T13:24:57;5.57;;;1.20;;
56427;SDS011;42331;53.578;9.760;2023-05-17T13:27:28;5.90;;;1.23;;
56427;SDS011;42331;53.578;9.760;2023-05-17T13:29:59;8.65;;;1.33;;
56427;SDS011;42331;53.578;9.760;2023-05-17T13:32:29;5.50;;;1.10;;
56427;SDS011;42331;53.578;9.760;2023-05-17T13:35:00;9.15;;;1.75;;
56427;SDS011;42331;53.578;9.760;2023-05-17T13:37:31;9.60;;;1.60;;
56427;SDS011;42331;53.578;9.760;2023-05-17T13:40:02;7.18;;;1.20;;
56427;SDS011;42331;53.578;9.760;2023-05-17T13:42:33;10.18;;;2.08;;
56427;SDS011;42331;53.578;9.760;2023-05-17T13:45:07;9.38;;;1.38;;
56427;SDS011;42331;53.578;9.760;2023-05-17T13:47:38;8.30;;;1.45;;
56427;SDS011;42331;53.578;9.760;2023-05-17T13:50:09;12.10;;;2.10;;
56427;SDS011;42331;53.578;9.760;2023-05-17T13:52:41;8.00;;;1.63;;
56427;SDS011;42331;53.578;9.760;2023-05-17T13:55:12;14.68;;;1.85;;
56427;SDS011;42331;53.578;9.760;2023-05-17T13:57:43;14.65;;;2.53;;
56427;SDS011;42331;53.578;9.760;2023-05-17T14:00:14;13.50;;;2.23;;
56427;SDS011;42331;53.578;9.760;2023-05-17T14:02:45;17.00;;;2.10;;
56427;SDS011;42331;53.578;9.760;2023-05-17T14:05:16;10.18;;;1.75;;
56427;SDS011;42331;53.578;9.760;2023-05-17T14:07:47;10.30;;;1.73;;
56427;SDS011;42331;53.578;9.760;2023-05-17T14:10:18;8.65;;;2.17;;
56427;SDS011;42331;53.578;9.760;2023-05-17T14:12:48;12.23;;;1.85;;
56427;SDS011;42331;53.578;9.760;2023-05-17T14:15:19;10.38;;;1.85;;
56427;SDS011;42331;53.578;9.760;2023-05-17T14:17:51;8.57;;;1.35;;
56427;SDS011;42331;53.578;9.760;2023-05-17T14:20:21;7.70;;;1.73;;
56427;SDS011;42331;53.578;9.760;2023-05-17T14:22:52;6.35;;;1.60;;
56427;SDS011;42331;53.578;9.760;2023-05-17T14:25:23;9.13;;;1.40;;
56427;SDS011;42331;53.578;9.760;2023-05-17T14:27:54;9.10;;;1.52;;
56427;SDS011;42331;53.578;9.760;2023-05-17T14:30:25;13.18;;;1.15;;
56427;SDS011;42331;53.578;9.760;2023-05-17T14:32:56;8.35;;;1.52;;
56427;SDS011;42331;53.578;9.760;2023-05-17T14:35:28;12.90;;;1.90;;
56427;SDS011;42331;53.578;9.760;2023-05-17T14:37:59;11.07;;;1.73;;
56427;SDS011;42331;53.578;9.760;2023-05-17T14:40:30;8.48;;;1.33;;
56427;SDS011;42331;53.578;9.760;2023-05-17T14:43:01;9.40;;;2.38;;
56427;SDS011;42331;53.578;9.760;2023-05-17T14:45:32;9.00;;;2.47;;
56427;SDS011;42331;53.578;9.760;2023-05-17T14:48:03;9.05;;;1.15;;
56427;SDS011;42331;53.578;9.760;2023-05-17T14:50:34;12.18;;;2.05;;
56427;SDS011;42331;53.578;9.760;2023-05-17T14:53:11;7.20;;;1.42;;
56427;SDS011;42331;53.578;9.760;2023-05-17T14:55:50;8.82;;;1.30;;
56427;SDS011;42331;53.578;9.760;2023-05-17T14:58:21;15.63;;;1.58;;
56427;SDS011;42331;53.578;9.760;2023-05-17T15:00:53;6.63;;;1.33;;
56427;SDS011;42331;53.578;9.760;2023-05-17T15:03:27;9.52;;;1.60;;
56427;SDS011;42331;53.578;9.760;2023-05-17T15:05:58;10.63;;;1.85;;
56427;SDS011;42331;53.578;9.760;2023-05-17T15:08:29;8.45;;;1.40;;
56427;SDS011;42331;53.578;9.760;2023-05-17T15:11:00;8.30;;;1.50;;
56427;SDS011;42331;53.578;9.760;2023-05-17T15:13:31;7.43;;;1.45;;
56427;SDS011;42331;53.578;9.760;2023-05-17T15:16:01;8.40;;;1.60;;
56427;SDS011;42331;53.578;9.760;2023-05-17T15:18:32;15.60;;;2.03;;
56427;SDS011;42331;53.578;9.760;2023-05-17T15:21:03;8.55;;;1.50;;
56427;SDS011;42331;53.578;9.760;2023-05-17T15:23:34;8.82;;;1.80;;
56427;SDS011;42331;53.578;9.760;2023-05-17T15:26:05;8.43;;;1.20;;
56427;SDS011;42331;53.578;9.760;2023-05-17T15:28:36;13.88;;;2.30;;
56427;SDS011;42331;53.578;9.760;2023-05-17T15:31:07;6.78;;;2.30;;
56427;SDS011;42331;53.578;9.760;2023-05-17T15:33:40;10.13;;;1.77;;
56427;SDS011;42331;53.578;9.760;2023-05-17T15:36:12;7.57;;;1.75;;
56427;SDS011;42331;53.578;9.760;2023-05-17T15:38:45;6.30;;;1.08;;
56427;SDS011;42331;53.578;9.760;2023-05-17T15:41:16;13.48;;;1.67;;
56427;SDS011;42331;53.578;9.760;2023-05-17T15:43:50;6.60;;;1.52;;